createdAt,value
2018-06-20T00:00:24.187Z,17.00
2018-06-20T00:02:58.485Z,17.00
2018-06-20T00:05:32.892Z,16.90
2018-06-20T00:08:07.177Z,16.90
2018-06-20T00:10:41.531Z,16.90
2018-06-20T00:13:15.827Z,16.80
2018-06-20T00:15:50.290Z,16.70
2018-06-20T00:18:24.712Z,16.70
2018-06-20T00:20:58.949Z,16.70
2018-06-20T00:23:33.272Z,16.60
2018-06-20T00:26:07.696Z,16.70
2018-06-20T00:31:16.258Z,16.60
2018-06-20T00:33:50.696Z,16.60
2018-06-20T00:36:25.185Z,16.50
2018-06-20T00:41:33.624Z,16.40
2018-06-20T00:44:07.965Z,16.30
2018-06-20T00:46:42.372Z,16.20
2018-06-20T00:51:50.943Z,16.00
2018-06-20T00:56:59.863Z,15.70
2018-06-20T00:59:34.152Z,15.80
2018-06-20T01:02:08.432Z,15.80
2018-06-20T01:04:42.815Z,15.90
2018-06-20T01:07:17.203Z,15.90
2018-06-20T01:09:51.500Z,15.80
2018-06-20T01:12:25.954Z,15.80
2018-06-20T01:15:00.190Z,15.70
2018-06-20T01:17:34.593Z,15.80
2018-06-20T01:20:09.033Z,15.80
2018-06-20T01:22:43.355Z,15.80
2018-06-20T01:27:51.906Z,15.40
2018-06-20T01:30:26.183Z,15.40
2018-06-20T01:33:00.466Z,15.50
2018-06-20T01:35:34.793Z,15.60
2018-06-20T01:38:09.231Z,15.60
2018-06-20T01:40:43.583Z,15.60
2018-06-20T01:45:52.216Z,15.50
2018-06-20T01:48:26.578Z,15.30
2018-06-20T01:53:35.244Z,15.20
2018-06-20T01:56:09.672Z,15.30
2018-06-20T01:58:43.938Z,15.30
2018-06-20T02:01:18.305Z,15.40
2018-06-20T02:03:52.629Z,15.40
2018-06-20T02:06:27.054Z,15.30
2018-06-20T02:09:01.378Z,15.30
2018-06-20T02:11:35.751Z,15.30
2018-06-20T02:14:10.055Z,15.30
2018-06-20T02:16:44.399Z,15.30
2018-06-20T02:19:18.682Z,15.20
2018-06-20T02:21:53.155Z,15.10
2018-06-20T02:27:01.679Z,15.10
2018-06-20T02:29:35.935Z,15.10
2018-06-20T02:32:10.343Z,15.10
2018-06-20T02:34:44.944Z,15.10
2018-06-20T02:37:19.346Z,15.10
2018-06-20T02:39:53.711Z,14.90
2018-06-20T02:42:28.220Z,14.80
2018-06-20T02:45:02.638Z,14.80
2018-06-20T02:47:43.087Z,14.90
2018-06-20T02:50:17.434Z,14.90
2018-06-20T02:52:51.910Z,14.90
2018-06-20T02:55:26.073Z,14.90
2018-06-20T02:58:00.495Z,14.80
2018-06-20T03:00:34.903Z,14.80
2018-06-20T03:03:09.778Z,14.80
2018-06-20T03:05:44.118Z,14.70
2018-06-20T03:10:52.634Z,14.70
2018-06-20T03:13:27.075Z,14.70
2018-06-20T03:16:01.562Z,14.70
2018-06-20T03:18:36.005Z,14.60
2018-06-20T03:21:10.419Z,14.50
2018-06-20T03:23:44.753Z,14.50
2018-06-20T03:26:19.058Z,14.50
2018-06-20T03:28:53.487Z,14.50
2018-06-20T03:31:28.340Z,14.60
2018-06-20T03:34:02.850Z,14.50
2018-06-20T03:36:37.182Z,14.50
2018-06-20T03:39:11.692Z,14.50
2018-06-20T03:41:45.984Z,14.50
2018-06-20T03:44:20.364Z,14.40
2018-06-20T03:49:28.792Z,14.40
2018-06-20T03:52:03.182Z,14.50
2018-06-20T03:54:37.568Z,14.50
2018-06-20T03:57:11.960Z,14.50
2018-06-20T03:59:46.266Z,14.50
2018-06-20T04:02:20.655Z,14.40
2018-06-20T04:04:55.147Z,14.40
2018-06-20T04:07:29.456Z,14.50
2018-06-20T04:10:03.935Z,14.50
2018-06-20T04:12:38.500Z,14.50
2018-06-20T04:15:12.741Z,14.60
2018-06-20T04:17:47.066Z,14.50
2018-06-20T04:20:21.468Z,14.60
2018-06-20T04:22:55.809Z,14.60
2018-06-20T04:25:30.284Z,14.30
2018-06-20T04:28:04.624Z,14.30
2018-06-20T04:30:38.928Z,14.10
2018-06-20T04:33:13.225Z,14.10
2018-06-20T04:35:47.708Z,13.90
2018-06-20T04:38:22.029Z,13.90
2018-06-20T04:40:56.492Z,14.10
2018-06-20T04:43:30.797Z,14.30
2018-06-20T04:46:05.251Z,14.60
2018-06-20T04:48:39.631Z,14.70
2018-06-20T04:51:14.675Z,14.80
2018-06-20T04:53:48.920Z,15.00
2018-06-20T04:58:57.414Z,15.30
2018-06-20T05:01:31.899Z,15.50
2018-06-20T05:06:40.528Z,15.80
2018-06-20T05:09:18.027Z,15.90
2018-06-20T05:11:52.347Z,16.10
2018-06-20T05:14:26.644Z,16.20
2018-06-20T05:19:35.337Z,16.20
2018-06-20T05:22:09.671Z,16.30
2018-06-20T05:24:44.051Z,16.40
2018-06-20T05:27:18.432Z,16.50
2018-06-20T05:29:52.801Z,16.60
2018-06-20T05:32:27.100Z,16.80
2018-06-20T05:35:01.475Z,16.80
2018-06-20T05:37:35.806Z,16.90
2018-06-20T05:40:10.703Z,17.00
2018-06-20T05:42:45.136Z,17.20
2018-06-20T05:45:19.508Z,17.30
2018-06-20T05:47:53.905Z,17.30
2018-06-20T05:50:28.291Z,17.40
2018-06-20T05:53:02.644Z,17.40
2018-06-20T05:55:37.630Z,17.50
2018-06-20T05:58:12.112Z,17.50
2018-06-20T06:00:46.593Z,17.60
2018-06-20T06:03:20.966Z,17.70
2018-06-20T06:06:06.738Z,17.90
2018-06-20T06:08:41.456Z,18.00
2018-06-20T06:11:15.963Z,18.20
2018-06-20T06:16:24.562Z,18.30
2018-06-20T06:18:59.041Z,18.40
2018-06-20T06:21:33.578Z,18.50
2018-06-20T06:24:07.942Z,18.70
2018-06-20T06:26:42.334Z,18.70
2018-06-20T06:29:16.755Z,18.80
2018-06-20T06:31:51.137Z,18.80
2018-06-20T06:36:59.638Z,18.90
2018-06-20T06:42:08.070Z,19.20
2018-06-20T06:44:42.434Z,19.20
2018-06-20T06:47:16.689Z,19.20
2018-06-20T06:49:51.097Z,19.30
2018-06-20T06:52:25.571Z,19.40
2018-06-20T06:54:59.827Z,19.50
2018-06-20T06:57:34.124Z,19.70
2018-06-20T07:00:08.593Z,19.70
2018-06-20T07:02:43.039Z,19.80
2018-06-20T07:07:52.196Z,20.10
2018-06-20T07:10:26.511Z,20.10
2018-06-20T07:13:00.793Z,20.30
2018-06-20T07:15:35.258Z,20.30
2018-06-20T07:18:09.508Z,20.30
2018-06-20T07:20:43.896Z,20.40
2018-06-20T07:23:18.372Z,20.50
2018-06-20T07:25:52.827Z,20.60
2018-06-20T07:28:27.223Z,20.60
2018-06-20T07:31:01.551Z,20.70
2018-06-20T07:38:44.380Z,21.10
2018-06-20T07:41:18.706Z,21.20
2018-06-20T07:43:53.027Z,21.40
2018-06-20T07:46:27.476Z,21.50
2018-06-20T07:49:01.726Z,21.70
2018-06-20T07:56:44.746Z,21.80
2018-06-20T07:59:19.140Z,21.90
2018-06-20T08:02:10.303Z,22.00
2018-06-20T08:04:50.255Z,22.20
2018-06-20T08:07:30.034Z,22.10
2018-06-20T08:10:09.909Z,22.20
2018-06-20T08:12:49.694Z,22.20
2018-06-20T08:15:29.353Z,22.30
2018-06-20T08:18:09.111Z,22.00
2018-06-20T08:20:43.480Z,22.30
2018-06-20T08:23:17.736Z,22.50
2018-06-20T08:25:52.189Z,22.50
2018-06-20T08:28:26.440Z,22.50
2018-06-20T08:36:09.141Z,23.20
2018-06-20T08:41:17.787Z,23.50
2018-06-20T08:43:52.309Z,23.50
2018-06-20T08:46:26.596Z,23.40
2018-06-20T08:51:35.171Z,23.80
2018-06-20T08:54:09.701Z,24.00
2018-06-20T08:56:43.958Z,24.00
2018-06-20T08:59:18.221Z,24.10
2018-06-20T09:01:52.654Z,24.00
2018-06-20T09:04:32.462Z,24.00
2018-06-20T09:07:12.258Z,24.20
2018-06-20T09:09:51.844Z,24.30
2018-06-20T09:12:31.690Z,24.20
2018-06-20T09:15:11.531Z,24.40
2018-06-20T09:20:25.560Z,24.80
2018-06-20T09:25:33.951Z,24.40
2018-06-20T09:28:08.319Z,24.40
2018-06-20T09:30:42.774Z,24.60
2018-06-20T09:38:25.463Z,24.90
2018-06-20T09:43:33.787Z,24.80
2018-06-20T09:46:08.208Z,24.80
2018-06-20T09:48:42.510Z,25.00
2018-06-20T09:51:17.003Z,24.80
2018-06-20T09:53:51.337Z,24.60
2018-06-20T09:56:25.645Z,24.60
2018-06-20T09:59:05.609Z,24.70
2018-06-20T10:01:45.448Z,24.80
2018-06-20T10:04:24.955Z,25.00
2018-06-20T10:07:04.824Z,25.00
2018-06-20T10:09:44.641Z,25.20
2018-06-20T10:13:23.126Z,25.20
2018-06-20T10:15:57.447Z,25.30
2018-06-20T10:21:05.907Z,25.30
2018-06-20T10:28:48.853Z,25.50
2018-06-20T10:33:57.316Z,25.50
2018-06-20T10:36:31.808Z,25.60
2018-06-20T10:39:07.952Z,25.60
2018-06-20T10:41:42.214Z,25.80
2018-06-20T10:46:56.841Z,25.90
2018-06-20T10:49:31.214Z,26.00
2018-06-20T10:52:05.747Z,25.80
2018-06-20T10:54:40.141Z,25.90
2018-06-20T10:57:19.942Z,25.90
2018-06-20T11:02:39.940Z,25.70
2018-06-20T11:05:19.628Z,26.00
2018-06-20T11:07:59.355Z,26.20
2018-06-20T11:12:46.307Z,26.00
2018-06-20T11:20:34.326Z,25.80
2018-06-20T11:23:08.744Z,25.90
2018-06-20T11:25:43.079Z,25.40
2018-06-20T11:30:51.667Z,26.00
2018-06-20T11:33:26.208Z,26.30
2018-06-20T11:36:00.714Z,26.40
2018-06-20T11:38:35.117Z,26.40
2018-06-20T11:41:09.639Z,26.40
2018-06-20T11:46:23.553Z,25.90
2018-06-20T11:48:58.092Z,25.90
2018-06-20T11:51:32.570Z,26.20
2018-06-20T11:54:08.057Z,26.40
2018-06-20T11:56:42.424Z,26.60
2018-06-20T11:59:22.197Z,26.40
2018-06-20T12:02:01.827Z,26.30
2018-06-20T12:04:41.489Z,26.40
2018-06-20T12:07:21.138Z,26.40
2018-06-20T12:10:00.864Z,26.80
2018-06-20T12:12:40.567Z,27.10
2018-06-20T12:15:20.398Z,26.70
2018-06-20T12:18:00.227Z,26.60
2018-06-20T12:20:39.904Z,26.80
2018-06-20T12:25:59.588Z,27.20
2018-06-20T12:28:39.055Z,27.30
2018-06-20T12:31:18.864Z,27.30
2018-06-20T12:33:58.501Z,27.30
2018-06-20T12:36:38.244Z,27.50
2018-06-20T12:39:11.840Z,27.70
2018-06-20T12:41:51.583Z,27.70
2018-06-20T12:44:30.111Z,27.70
2018-06-20T12:47:09.414Z,27.60
2018-06-20T12:49:50.869Z,27.60
2018-06-20T12:52:25.331Z,27.30
2018-06-20T12:54:59.734Z,27.20
2018-06-20T12:57:34.128Z,27.50
2018-06-20T13:00:08.627Z,27.50
2018-06-20T13:07:51.991Z,27.40
2018-06-20T13:10:26.426Z,27.70
2018-06-20T13:15:34.946Z,28.00
2018-06-20T13:18:09.297Z,27.30
2018-06-20T13:20:43.812Z,27.30
2018-06-20T13:23:18.212Z,27.60
2018-06-20T13:25:52.626Z,27.40
2018-06-20T13:28:27.074Z,27.60
2018-06-20T13:32:04.473Z,27.90
2018-06-20T13:34:44.076Z,28.00
2018-06-20T13:37:23.808Z,27.80
2018-06-20T13:40:03.402Z,27.80
2018-06-20T13:42:43.028Z,27.70
2018-06-20T13:45:22.779Z,27.80
2018-06-20T13:48:02.296Z,27.90
2018-06-20T13:50:36.676Z,27.90
2018-06-20T13:55:45.074Z,27.60
2018-06-20T14:06:01.928Z,28.20
2018-06-20T14:08:36.340Z,27.90
2018-06-20T14:11:10.871Z,27.90
2018-06-20T14:13:45.172Z,28.10
2018-06-20T14:16:19.623Z,28.30
2018-06-20T14:18:53.886Z,28.40
2018-06-20T14:21:33.556Z,28.30
2018-06-20T14:24:09.035Z,28.20
2018-06-20T14:26:43.579Z,28.60
2018-06-20T14:29:17.834Z,28.30
2018-06-20T14:31:57.706Z,28.20
2018-06-20T14:34:37.345Z,27.80
2018-06-20T14:37:17.075Z,28.30
2018-06-20T14:39:56.884Z,28.30
2018-06-20T14:45:16.308Z,29.30
2018-06-20T14:47:50.633Z,29.30
2018-06-20T14:50:25.177Z,29.30
2018-06-20T14:55:33.588Z,29.10
2018-06-20T14:58:07.937Z,29.20
2018-06-20T15:00:42.242Z,29.40
2018-06-20T15:03:16.728Z,29.00
2018-06-20T15:05:51.127Z,29.10
2018-06-20T15:08:25.403Z,29.20
2018-06-20T15:10:59.785Z,29.40
2018-06-20T15:16:13.855Z,29.90
2018-06-20T15:18:48.182Z,29.60
2018-06-20T15:21:22.553Z,29.30
2018-06-20T15:23:56.853Z,29.40
2018-06-20T15:26:36.817Z,29.30
2018-06-20T15:29:16.704Z,29.40
2018-06-20T15:31:56.601Z,29.60
2018-06-20T15:37:16.007Z,30.10
2018-06-20T15:39:50.443Z,30.30
2018-06-20T15:42:24.882Z,29.80
2018-06-20T15:44:59.301Z,29.80
2018-06-20T15:47:33.811Z,29.60
2018-06-20T15:55:16.695Z,29.10
2018-06-20T16:00:25.259Z,28.90
2018-06-20T16:02:59.687Z,29.00
2018-06-20T16:05:34.061Z,29.60
2018-06-20T16:10:42.479Z,30.10
2018-06-20T16:13:16.732Z,30.20
2018-06-20T16:15:51.284Z,30.70
2018-06-20T16:23:45.081Z,32.00
2018-06-20T16:26:24.938Z,32.80
2018-06-20T16:29:04.680Z,33.10
2018-06-20T16:34:13.777Z,32.90
2018-06-20T16:39:22.705Z,34.60
2018-06-20T16:41:57.135Z,35.00
2018-06-20T16:44:31.777Z,35.00
2018-06-20T16:47:06.195Z,34.90
2018-06-20T16:54:48.905Z,34.70
2018-06-20T16:57:23.250Z,34.30
2018-06-20T16:59:57.545Z,34.40
2018-06-20T17:02:34.872Z,34.40
2018-06-20T17:05:09.592Z,34.30
2018-06-20T17:07:43.901Z,34.70
2018-06-20T17:10:20.674Z,34.50
2018-06-20T17:13:00.584Z,35.00
2018-06-20T17:15:40.337Z,35.50
2018-06-20T17:18:20.171Z,35.70
2018-06-20T17:21:00.008Z,36.00
2018-06-20T17:23:39.962Z,35.70
2018-06-20T17:26:14.344Z,35.90
2018-06-20T17:28:48.674Z,36.70
2018-06-20T17:31:23.028Z,36.70
2018-06-20T17:33:57.383Z,37.40
2018-06-20T17:36:31.909Z,37.20
2018-06-20T17:39:07.664Z,37.20
2018-06-20T17:41:42.070Z,36.50
2018-06-20T17:46:50.483Z,36.70
2018-06-20T17:49:24.911Z,36.70
2018-06-20T17:54:33.581Z,37.20
2018-06-20T17:57:07.980Z,37.50
2018-06-20T17:59:42.333Z,36.90
2018-06-20T18:02:16.691Z,35.40
2018-06-20T18:04:56.471Z,34.50
2018-06-20T18:07:36.263Z,33.70
2018-06-20T18:10:16.099Z,32.50
2018-06-20T18:15:33.764Z,31.30
2018-06-20T18:18:08.084Z,31.00
2018-06-20T18:20:42.576Z,30.30
2018-06-20T18:23:16.895Z,30.30
2018-06-20T18:25:51.216Z,30.10
2018-06-20T18:28:25.553Z,30.00
2018-06-20T18:30:59.874Z,30.00
2018-06-20T18:33:34.318Z,29.70
2018-06-20T18:38:42.747Z,29.40
2018-06-20T18:41:17.139Z,29.20
2018-06-20T18:43:51.542Z,29.10
2018-06-20T18:49:00.081Z,28.70
2018-06-20T18:56:42.922Z,28.20
2018-06-20T18:59:22.599Z,28.00
2018-06-20T19:02:02.241Z,28.00
2018-06-20T19:04:42.057Z,27.90
2018-06-20T19:08:22.624Z,27.70
2018-06-20T19:10:57.023Z,27.50
2018-06-20T19:13:31.464Z,27.30
2018-06-20T19:18:39.845Z,27.00
2018-06-20T19:21:14.165Z,26.80
2018-06-20T19:23:48.580Z,26.70
2018-06-20T19:26:23.090Z,26.60
2018-06-20T19:28:57.340Z,26.50
2018-06-20T19:31:31.674Z,26.40
2018-06-20T19:34:06.122Z,26.30
2018-06-20T19:39:20.165Z,26.10
2018-06-20T19:44:33.071Z,25.80
2018-06-20T19:52:15.826Z,25.40
2018-06-20T19:57:24.200Z,25.00
2018-06-20T20:02:32.900Z,24.40
2018-06-20T20:07:41.501Z,24.40
2018-06-20T20:12:50.022Z,24.30
2018-06-20T20:15:24.315Z,24.10
2018-06-20T20:20:32.665Z,24.00
2018-06-20T20:23:07.138Z,23.80
2018-06-20T20:25:41.483Z,23.80
2018-06-20T20:30:49.932Z,23.50
2018-06-20T20:33:24.302Z,23.50
2018-06-20T20:35:58.591Z,23.40
2018-06-20T20:38:32.861Z,23.30
2018-06-20T20:41:07.205Z,23.20
2018-06-20T20:43:41.542Z,23.10
2018-06-20T20:46:16.154Z,23.00
2018-06-20T20:48:50.471Z,22.90
2018-06-20T20:53:59.000Z,22.80
2018-06-20T20:56:33.438Z,22.80
2018-06-20T20:59:07.845Z,22.70
2018-06-20T21:01:42.208Z,22.40
2018-06-20T21:06:50.825Z,22.20
2018-06-20T21:09:25.141Z,22.10
2018-06-20T21:11:59.386Z,22.10
2018-06-20T21:14:33.750Z,22.00
2018-06-20T21:17:08.081Z,22.00
2018-06-20T21:22:16.448Z,22.00
2018-06-20T21:24:50.758Z,21.80
2018-06-20T21:27:25.146Z,21.60
2018-06-20T21:29:59.521Z,21.40
2018-06-20T21:32:34.011Z,20.90
2018-06-20T21:37:42.410Z,21.10
2018-06-20T21:40:16.858Z,21.00
2018-06-20T21:47:59.661Z,21.10
2018-06-20T21:50:33.963Z,21.10
2018-06-20T21:55:42.727Z,21.00
2018-06-20T21:58:16.998Z,21.00
2018-06-20T22:00:51.301Z,20.90
2018-06-20T22:03:26.527Z,20.80
2018-06-20T22:06:00.894Z,20.70
2018-06-20T22:08:35.359Z,20.70
2018-06-20T22:13:43.826Z,20.70
2018-06-20T22:16:18.250Z,20.70
2018-06-20T22:21:26.812Z,20.60
2018-06-20T22:24:01.102Z,20.50
2018-06-20T22:26:35.540Z,20.40
2018-06-20T22:29:09.834Z,20.40
2018-06-20T22:31:44.356Z,20.30
2018-06-20T22:34:18.659Z,20.20
2018-06-20T22:39:27.124Z,20.10
2018-06-20T22:44:35.664Z,20.10
2018-06-20T22:49:44.158Z,20.00
2018-06-20T22:54:52.854Z,19.60
2018-06-20T22:57:27.238Z,19.60
2018-06-20T23:00:01.717Z,19.40
2018-06-20T23:02:36.131Z,19.40
2018-06-20T23:05:10.544Z,19.40
2018-06-20T23:07:44.755Z,19.40
2018-06-20T23:10:19.104Z,19.30
2018-06-20T23:12:53.407Z,19.30
2018-06-20T23:15:28.012Z,19.40
2018-06-20T23:20:36.687Z,19.30
2018-06-20T23:28:19.514Z,18.80
2018-06-20T23:30:53.782Z,18.90
2018-06-20T23:33:28.158Z,18.90
2018-06-20T23:36:02.440Z,18.90
2018-06-20T23:38:36.784Z,18.90
2018-06-20T23:41:11.077Z,19.00
2018-06-20T23:43:45.359Z,18.90
2018-06-20T23:46:19.716Z,18.90
2018-06-20T23:48:54.221Z,18.80
2018-06-20T23:51:28.799Z,18.80
2018-06-20T23:54:03.053Z,18.70
2018-06-20T23:56:37.499Z,18.70
2018-06-20T23:59:11.883Z,18.70
